Accueil
METAR-TAF:

METAR-TAF

Aéroports :

Aéroport international Maiquetía - Simón Bolívar

Caracas, Venezuela

latitude: 10-36N, longitude: 066-59W, altitude: 43 m

Observation

Le bulletin a été fait il y a 59 minutes, à 00:02 UTC
Température
Pression

METAR: SVMI 260002Z AUTO NIL

Heure: 21:01 (01:01 UTC)

Prévision

Le bulletin a été fait il y a 3 heures et 1 minutes, à 22:00 UTC
Prévision valable du 26 à 00 UTC au 27 à 00 UTC
Vent 10 kt de est
Visibilité 10 km ou plus
Nuages épars à une hauteur de 1600 ft
Evoluant progressivement
du 26 à 00 UTC au 26 à 04 UTC
Vent 10 kt de est
Visibilité 10 km ou plus
Nuages épars à une hauteur de 1600 ft
Nuages fragmentés à une hauteur de 1600 ft

TAF: SVMI 252200Z 2600/2700 09010KT 9999 SCT016 TX32/17Z TN22/09Z BECMG 2600/2604 09010KT 9999 SCT016 BKN016

Observations et prévisions météorologiques de plus de 4000 aéroports (messages METAR et TAF).

Les stations disponibles sont représentées par des disques jaunes et rouges sur la carte.

Passer la souris dessus pour voir le nom de la station.

Cliquer dessus pour voir les observations et prévisions météorologiques.

Pour changer de carte: cliquez sur les boutons verts avec une croix noire pour zoomer, sur le bouton vert avec un tiret pour effectuer un zoom arrière, ou sur les flèches vertes pour les cartes adjacentes.


METAR-TAF: